Time;durP1;ratioP1;P1;durP2;ratioP2;P2;SDS_P1;SDS_P2;PMS_P1;PMS_P2;Temp;Humidity;BMP_temperature;BMP_pressure;BME280_temperature;BME280_humidity;BME280_pressure;Samples;Min_cycle;Max_cycle;Signal;HPM_P1;HPM_P2
2022/12/19 00:00:33;;;;;;;46.17;27.02;;;;;;;1.44;82.63;101731.41;5091163;28;20467;-62
2022/12/19 00:02:58;;;;;;;45.88;26.60;;;;;;;1.44;82.64;101728.66;5090658;28;20024;-62
2022/12/19 00:05:23;;;;;;;43.90;26.65;;;;;;;1.46;83.06;101732.09;5089911;28;20032;-61
2022/12/19 00:07:49;;;;;;;45.53;26.25;;;;;;;1.47;82.28;101718.25;5091452;28;20036;-62
2022/12/19 00:10:14;;;;;;;46.50;27.88;;;;;;;1.48;82.63;101709.00;5086606;28;20173;-62
2022/12/19 00:12:39;;;;;;;53.13;27.70;;;;;;;1.47;82.81;101718.25;5090442;28;20039;-61
2022/12/19 00:15:05;;;;;;;49.60;28.17;;;;;;;1.46;82.89;101702.00;5090705;28;20058;-61
2022/12/19 00:17:31;;;;;;;51.78;28.90;;;;;;;1.47;82.94;101711.91;5090861;28;20044;-61
2022/12/19 00:19:57;;;;;;;46.13;28.08;;;;;;;1.49;83.13;101715.31;5091086;28;20035;-62
2022/12/19 00:22:22;;;;;;;49.33;28.77;;;;;;;1.48;83.22;101719.09;5091440;28;20024;-61
2022/12/19 00:24:47;;;;;;;46.65;27.40;;;;;;;1.50;83.45;101711.59;5090374;28;20552;-62
2022/12/19 00:27:12;;;;;;;44.63;27.55;;;;;;;1.54;82.94;101707.47;5078550;28;20076;-61
2022/12/19 00:29:38;;;;;;;47.70;28.15;;;;;;;1.54;83.55;101695.69;5078514;28;20024;-61
2022/12/19 00:32:03;;;;;;;42.83;27.05;;;;;;;1.54;82.97;101690.22;5090492;28;20028;-61
2022/12/19 00:34:29;;;;;;;47.10;27.70;;;;;;;1.54;83.96;101691.06;5090333;28;20133;-61
2022/12/19 00:36:54;;;;;;;47.92;28.38;;;;;;;1.56;83.53;101685.41;5090085;28;20067;-62
2022/12/19 00:39:19;;;;;;;45.45;28.08;;;;;;;1.58;83.77;101692.41;5090155;28;20031;-62
2022/12/19 00:41:44;;;;;;;46.00;27.67;;;;;;;1.58;83.40;101669.69;5089509;28;20054;-61
2022/12/19 00:44:12;;;;;;;48.65;26.50;;;;;;;1.60;83.26;101675.81;5090514;28;20040;-61
2022/12/19 00:46:37;;;;;;;46.28;27.05;;;;;;;1.62;83.58;101682.84;5086965;28;20093;-61
2022/12/19 00:49:03;;;;;;;45.95;28.08;;;;;;;1.64;83.80;101680.75;5090687;28;20464;-61
2022/12/19 00:51:31;;;;;;;47.13;27.90;;;;;;;1.65;83.93;101682.50;5090171;28;20111;-61
2022/12/19 00:53:57;;;;;;;46.13;26.23;;;;;;;1.69;83.33;101683.84;5090961;28;20097;-62
2022/12/19 00:56:25;;;;;;;44.15;26.92;;;;;;;1.70;83.50;101668.28;5089432;28;20476;-61
2022/12/19 00:58:51;;;;;;;44.72;27.55;;;;;;;1.74;83.17;101660.56;5089601;28;20476;-61
2022/12/19 01:01:20;;;;;;;43.95;26.52;;;;;;;1.74;83.22;101652.38;5090739;28;20536;-62
2022/12/19 01:03:46;;;;;;;47.83;27.42;;;;;;;1.75;83.17;101643.13;5087951;28;20418;-62
2022/12/19 01:06:13;;;;;;;44.15;26.23;;;;;;;1.76;83.38;101651.13;5072774;28;20376;-62
2022/12/19 01:08:38;;;;;;;45.35;26.23;;;;;;;1.79;83.85;101667.22;5087917;28;20024;-62
2022/12/19 01:11:04;;;;;;;42.70;26.52;;;;;;;1.79;83.86;101659.00;5089548;28;20031;-62
2022/12/19 01:13:32;;;;;;;44.35;25.98;;;;;;;1.81;83.34;101661.56;5089733;28;20016;-62
2022/12/19 01:16:09;;;;;;;41.45;26.52;;;;;;;1.81;84.34;101656.97;5090386;28;20028;-61
2022/12/19 01:18:35;;;;;;;49.30;27.73;;;;;;;1.83;83.87;101656.78;5090627;28;20035;-61
2022/12/19 01:21:03;;;;;;;48.40;27.63;;;;;;;1.82;83.73;101646.88;5089098;28;20539;-62
2022/12/19 01:23:29;;;;;;;45.40;27.15;;;;;;;1.82;84.22;101638.66;5079939;28;20064;-62
2022/12/19 01:25:55;;;;;;;44.55;27.55;;;;;;;1.86;83.69;101634.53;5088299;28;20450;-61
2022/12/19 01:28:21;;;;;;;44.30;27.17;;;;;;;1.85;84.23;101633.69;5088248;28;20028;-61
2022/12/19 01:30:46;;;;;;;46.40;27.67;;;;;;;1.86;83.57;101626.31;5090281;28;20425;-62
2022/12/19 01:33:14;;;;;;;46.47;27.33;;;;;;;1.89;84.15;101623.22;5089849;28;20062;-61
2022/12/19 01:35:40;;;;;;;46.60;27.00;;;;;;;1.90;84.25;101624.94;5088921;28;20052;-61
2022/12/19 01:38:06;;;;;;;41.70;25.95;;;;;;;1.91;83.76;101626.63;5090414;28;20028;-62
2022/12/19 01:40:31;;;;;;;46.25;27.70;;;;;;;1.93;84.29;101633.66;5088750;28;20299;-62
2022/12/19 01:42:56;;;;;;;45.85;27.08;;;;;;;1.96;83.97;101637.88;5085388;28;20024;-62
2022/12/19 01:45:30;;;;;;;44.67;26.65;;;;;;;1.96;83.97;101635.16;5089868;28;20028;-62
2022/12/19 01:48:04;;;;;;;43.47;27.38;;;;;;;2.00;83.89;101624.69;5081242;28;20064;-61
2022/12/19 01:50:57;;;;;;;40.28;25.95;;;;;;;2.02;84.06;101628.97;5090145;28;20089;-61
2022/12/19 01:53:26;;;;;;;44.17;26.00;;;;;;;2.01;83.94;101630.03;5089783;28;20478;-61
2022/12/19 01:55:51;;;;;;;42.65;25.35;;;;;;;2.01;84.25;101627.28;5089251;28;20024;-62
2022/12/19 01:58:20;;;;;;;44.90;27.80;;;;;;;2.01;84.30;101620.97;5089427;28;20039;-62
2022/12/19 02:00:45;;;;;;;44.42;27.45;;;;;;;1.99;84.28;101633.94;5090237;28;20032;-61
2022/12/19 02:03:14;;;;;;;46.92;28.27;;;;;;;2.00;84.01;101624.69;5084179;28;20032;-62
2022/12/19 02:05:39;;;;;;;47.03;26.98;;;;;;;2.02;84.24;101612.56;5076550;28;20111;-62
2022/12/19 02:08:06;;;;;;;46.05;26.90;;;;;;;2.04;84.40;101615.94;5090095;28;20111;-62
2022/12/19 02:10:31;;;;;;;46.08;27.00;;;;;;;2.05;84.43;101603.97;5089300;28;20469;-62
2022/12/19 02:12:56;;;;;;;43.70;27.02;;;;;;;2.07;84.13;101598.31;5088498;28;20197;-62
2022/12/19 02:15:22;;;;;;;42.00;26.00;;;;;;;2.09;84.56;101591.63;5089510;28;20028;-61
2022/12/19 02:18:08;;;;;;;44.67;26.02;;;;;;;2.10;83.85;101584.28;5088876;28;20035;-62
2022/12/19 02:20:33;;;;;;;47.97;27.20;;;;;;;2.11;83.93;101583.22;5088834;28;20099;-62
2022/12/19 02:23:07;;;;;;;43.72;27.42;;;;;;;2.12;84.11;101579.44;5082800;28;20123;-62
2022/12/19 02:26:04;;;;;;;43.67;26.83;;;;;;;2.13;84.70;101571.06;5089252;28;20127;-62
2022/12/19 02:28:29;;;;;;;42.20;26.05;;;;;;;2.10;84.78;101565.94;5089450;28;20040;-61
2022/12/19 02:31:09;;;;;;;45.20;27.52;;;;;;;2.12;85.37;101563.03;5089414;28;20047;-61
2022/12/19 02:33:54;;;;;;;45.67;26.48;;;;;;;2.14;84.69;101567.28;5089366;28;20482;-62
2022/12/19 02:36:29;;;;;;;45.08;25.25;;;;;;;2.18;85.06;101570.53;5088190;28;20441;-62
2022/12/19 02:39:29;;;;;;;44.38;26.63;;;;;;;2.20;85.40;101562.97;5077066;28;20025;-61
2022/12/19 02:42:00;;;;;;;43.72;26.15;;;;;;;2.20;85.61;101561.13;5066679;28;20139;-61
2022/12/19 02:44:38;;;;;;;42.63;24.73;;;;;;;2.24;85.13;101555.25;5087788;28;20044;-62
2022/12/19 02:47:05;;;;;;;44.80;24.40;;;;;;;2.26;85.24;101545.81;5087991;28;20491;-61
2022/12/19 02:49:36;;;;;;;44.30;25.30;;;;;;;2.29;86.00;101548.22;5089658;28;20042;-62
2022/12/19 02:52:31;;;;;;;40.78;24.80;;;;;;;2.33;86.41;101537.75;5086305;28;20113;-62
2022/12/19 02:55:03;;;;;;;44.92;24.20;;;;;;;2.36;86.81;101538.22;5076972;28;20479;-61
2022/12/19 02:58:04;;;;;;;41.80;25.92;;;;;;;2.39;86.24;101534.25;5087895;28;20732;-62
2022/12/19 03:00:35;;;;;;;40.40;23.13;;;;;;;2.43;86.66;101527.38;5082216;28;20049;-62
2022/12/19 03:03:28;;;;;;;43.33;25.50;;;;;;;2.44;86.49;101527.22;5089730;28;20057;-61
2022/12/19 03:06:03;;;;;;;41.97;24.15;;;;;;;2.45;86.75;101526.16;5090542;28;20032;-61
2022/12/19 03:08:37;;;;;;;42.38;23.85;;;;;;;2.47;87.09;101532.28;5087616;28;20475;-61
2022/12/19 03:11:07;;;;;;;42.38;24.58;;;;;;;2.52;86.80;101530.94;5088271;28;20036;-61
2022/12/19 03:13:39;;;;;;;41.05;23.88;;;;;;;2.54;87.55;101534.31;5080740;28;20540;-62
2022/12/19 03:16:08;;;;;;;42.80;24.05;;;;;;;2.55;87.66;101530.53;5086012;28;20115;-61
2022/12/19 03:18:33;;;;;;;40.95;23.80;;;;;;;2.56;87.48;101527.63;5071720;28;20072;-62
2022/12/19 03:21:15;;;;;;;36.50;23.33;;;;;;;2.60;87.96;101528.13;5087510;28;20068;-62
2022/12/19 03:23:41;;;;;;;40.15;22.75;;;;;;;2.63;87.43;101525.84;5091270;28;20138;-61
2022/12/19 03:26:16;;;;;;;40.55;23.58;;;;;;;2.67;87.70;101518.97;5088044;28;20035;-62
2022/12/19 03:28:49;;;;;;;37.35;21.45;;;;;;;2.68;87.87;101526.16;5091228;28;20093;-62
2022/12/19 03:31:18;;;;;;;32.92;19.92;;;;;;;2.74;88.55;101523.69;5088384;28;20028;-61
2022/12/19 03:33:47;;;;;;;36.80;21.02;;;;;;;2.80;89.17;101514.75;5084164;28;20031;-62
2022/12/19 03:36:19;;;;;;;34.30;21.08;;;;;;;2.85;89.13;101518.63;5088076;28;20032;-62
2022/12/19 03:38:45;;;;;;;;;;;;;;;2.90;88.43;101512.56;5089378;28;20036;-62
2022/12/19 03:41:14;;;;;;;31.90;18.35;;;;;;;2.94;88.54;101508.41;5090344;28;20343;-62
2022/12/19 03:43:43;;;;;;;31.10;19.67;;;;;;;2.99;89.63;101507.84;5092141;28;20052;-61
2022/12/19 03:46:15;;;;;;;35.22;19.90;;;;;;;3.01;90.41;101506.63;5086662;28;20059;-62
2022/12/19 03:48:49;;;;;;;33.80;19.15;;;;;;;3.06;90.79;101517.88;5091261;28;20052;-62
2022/12/19 03:51:19;;;;;;;35.40;19.45;;;;;;;3.12;91.10;101511.66;5083170;28;20036;-62
2022/12/19 03:54:14;;;;;;;30.25;18.80;;;;;;;3.18;91.27;101516.41;5091424;28;20024;-62
2022/12/19 03:57:10;;;;;;;27.85;17.23;;;;;;;3.24;92.02;101501.06;5079867;28;20039;-62
2022/12/19 03:59:41;;;;;;;29.15;17.00;;;;;;;3.29;91.81;101511.47;5089363;28;20066;-62
2022/12/19 04:02:08;;;;;;;29.30;17.80;;;;;;;3.33;91.99;101508.16;5085535;28;20130;-61
2022/12/19 04:04:37;;;;;;;29.85;18.42;;;;;;;3.39;92.03;101507.41;5088621;28;20028;-62
2022/12/19 04:07:04;;;;;;;33.38;18.38;;;;;;;3.43;92.39;101507.88;5082796;28;20111;-61
2022/12/19 04:09:32;;;;;;;30.90;17.67;;;;;;;3.48;93.08;101499.91;5089426;28;20028;-62
2022/12/19 04:12:04;;;;;;;29.05;16.88;;;;;;;3.50;92.81;101507.94;5090302;28;20032;-62
2022/12/19 04:14:36;;;;;;;28.58;18.13;;;;;;;3.54;93.09;101507.41;5089983;28;20089;-62
2022/12/19 04:17:20;;;;;;;32.38;17.20;;;;;;;3.58;92.81;101494.16;5090694;28;20800;-62
2022/12/19 04:19:57;;;;;;;24.83;16.15;;;;;;;3.63;93.12;101481.53;5088951;28;20579;-62
2022/12/19 04:22:31;;;;;;;26.63;17.08;;;;;;;3.68;93.32;101484.56;5087546;28;20027;-62
2022/12/19 04:25:02;;;;;;;31.42;16.67;;;;;;;3.72;93.12;101490.50;5079381;28;20028;-61
2022/12/19 04:27:34;;;;;;;25.58;16.85;;;;;;;3.78;93.80;101484.25;5089873;28;20031;-62
2022/12/19 04:30:02;;;;;;;27.08;16.25;;;;;;;3.82;93.77;101477.34;5089399;28;20040;-61
2022/12/19 04:32:31;;;;;;;24.92;16.30;;;;;;;3.85;93.47;101478.81;5087130;28;20498;-62
2022/12/19 04:34:59;;;;;;;26.23;16.02;;;;;;;3.87;94.04;101477.59;5087158;28;20052;-62
2022/12/19 04:37:25;;;;;;;23.63;15.98;;;;;;;3.92;93.94;101480.59;5089931;28;20036;-62
2022/12/19 04:39:50;;;;;;;26.05;16.45;;;;;;;3.94;94.05;101473.03;5088386;28;20064;-62
2022/12/19 04:42:15;;;;;;;26.50;16.58;;;;;;;3.97;94.64;101474.56;5084725;28;20487;-62
2022/12/19 04:44:41;;;;;;;25.48;17.52;;;;;;;4.02;94.30;101480.31;5089400;28;20400;-62
2022/12/19 04:47:06;;;;;;;26.30;18.05;;;;;;;4.03;94.66;101476.50;5090326;28;20024;-62
2022/12/19 04:49:31;;;;;;;24.15;15.60;;;;;;;4.08;94.25;101479.50;5089265;28;20032;-62
2022/12/19 04:51:57;;;;;;;26.63;16.60;;;;;;;4.12;94.72;101472.56;5090116;28;20384;-62
2022/12/19 04:54:22;;;;;;;28.80;16.27;;;;;;;4.16;94.83;101465.63;5089544;28;20528;-62
2022/12/19 04:56:47;;;;;;;24.38;17.33;;;;;;;4.21;94.98;101476.06;5090406;28;20028;-61
2022/12/19 04:59:13;;;;;;;27.38;17.67;;;;;;;4.27;95.38;101471.66;5079860;28;20492;-62
2022/12/19 05:01:38;;;;;;;25.20;16.75;;;;;;;4.25;95.45;101473.78;5084239;28;20486;-62
2022/12/19 05:04:03;;;;;;;26.15;15.85;;;;;;;4.25;95.31;101473.78;5090323;28;20039;-62
2022/12/19 05:06:28;;;;;;;26.33;16.60;;;;;;;4.28;95.46;101479.72;5089223;28;20020;-62
2022/12/19 05:08:54;;;;;;;25.63;15.27;;;;;;;4.30;95.28;101472.13;5090474;28;20027;-62
2022/12/19 05:11:20;;;;;;;24.73;15.73;;;;;;;4.34;95.03;101462.44;5089924;28;20677;-62
2022/12/19 05:13:46;;;;;;;26.33;16.95;;;;;;;4.40;95.85;101458.03;5089705;28;20411;-61
2022/12/19 05:16:11;;;;;;;24.70;15.85;;;;;;;4.41;95.70;101463.38;5085593;28;20028;-63
2022/12/19 05:18:37;;;;;;;23.20;16.08;;;;;;;4.42;95.89;101462.31;5089253;28;20383;-62
2022/12/19 05:21:04;;;;;;;22.02;15.50;;;;;;;4.46;96.35;101468.25;5089672;28;20028;-62
2022/12/19 05:23:29;;;;;;;24.40;15.95;;;;;;;4.47;96.15;101445.22;5086909;28;20067;-61
2022/12/19 05:25:59;;;;;;;24.42;15.40;;;;;;;4.50;95.87;101465.97;5088797;28;20454;-62
2022/12/19 05:28:25;;;;;;;24.60;16.00;;;;;;;4.51;96.09;101456.66;5089457;28;20081;-61
2022/12/19 05:30:50;;;;;;;24.67;16.30;;;;;;;4.52;96.23;101469.34;5088897;28;20027;-62
2022/12/19 05:33:16;;;;;;;23.38;15.10;;;;;;;4.54;96.08;101446.13;5077767;28;20824;-61
2022/12/19 05:35:41;;;;;;;21.42;15.43;;;;;;;4.58;95.95;101465.81;5088156;28;20051;-61
2022/12/19 05:38:06;;;;;;;21.95;15.52;;;;;;;4.62;96.21;101456.97;5086352;28;20070;-61
2022/12/19 05:40:35;;;;;;;22.90;15.25;;;;;;;4.64;96.33;101454.03;5087781;28;20119;-61
2022/12/19 05:43:00;;;;;;;24.27;15.32;;;;;;;4.66;95.71;101457.44;5089735;28;20056;-61
2022/12/19 05:45:28;;;;;;;23.10;14.02;;;;;;;4.71;96.01;101454.91;5079769;28;20483;-61
2022/12/19 05:47:54;;;;;;;24.17;14.90;;;;;;;4.75;96.08;101452.63;5082673;28;20102;-60
2022/12/19 05:50:28;;;;;;;22.08;14.27;;;;;;;4.78;96.62;101454.97;5080077;28;20547;-61
2022/12/19 05:52:56;;;;;;;24.77;14.38;;;;;;;4.82;96.49;101465.38;5088270;28;20729;-61
2022/12/19 05:55:21;;;;;;;20.80;13.93;;;;;;;4.82;96.75;101451.63;5089581;28;20051;-61
2022/12/19 05:57:46;;;;;;;22.30;14.88;;;;;;;4.84;96.45;101457.78;5084454;28;20464;-61
2022/12/19 06:00:15;;;;;;;21.20;15.00;;;;;;;4.87;96.51;101460.16;5085946;28;20028;-62
2022/12/19 06:02:44;;;;;;;20.88;13.93;;;;;;;4.93;96.71;101461.22;5078345;28;20028;-62
2022/12/19 06:05:09;;;;;;;23.17;14.85;;;;;;;4.93;96.65;101453.81;5087715;28;20486;-63
2022/12/19 06:07:34;;;;;;;20.42;14.00;;;;;;;4.92;96.55;101457.63;5085954;28;20032;-61
2022/12/19 06:09:59;;;;;;;19.80;13.50;;;;;;;4.97;96.37;101461.69;5083529;28;20042;-63
2022/12/19 06:12:25;;;;;;;20.15;14.52;;;;;;;5.01;96.74;101447.31;5087425;28;20032;-63
2022/12/19 06:14:50;;;;;;;19.05;13.52;;;;;;;5.01;96.08;101461.06;5086401;28;20140;-61
2022/12/19 06:17:15;;;;;;;21.55;14.00;;;;;;;5.03;95.97;101456.22;5081074;28;20039;-63
2022/12/19 06:19:44;;;;;;;21.25;13.90;;;;;;;5.09;96.03;101455.41;5074167;28;20841;-61
2022/12/19 06:22:12;;;;;;;19.48;14.52;;;;;;;5.11;96.56;101457.97;5081675;28;20403;-60
2022/12/19 06:24:40;;;;;;;21.15;14.45;;;;;;;5.13;96.61;101450.34;5081902;28;20028;-60
2022/12/19 06:27:08;;;;;;;22.30;15.52;;;;;;;5.16;96.86;101448.03;5089124;28;20028;-60
2022/12/19 06:29:33;;;;;;;20.55;14.60;;;;;;;5.19;96.46;101446.78;5088975;28;20368;-60
2022/12/19 06:31:58;;;;;;;21.67;14.23;;;;;;;5.21;96.20;101463.09;5087882;28;20028;-60
2022/12/19 06:34:24;;;;;;;18.73;13.63;;;;;;;5.22;96.54;101462.88;5088828;28;20499;-60
2022/12/19 06:36:49;;;;;;;15.77;12.32;;;;;;;5.24;96.41;101468.19;5087507;28;20039;-60
2022/12/19 06:39:15;;;;;;;17.92;13.10;;;;;;;5.26;96.49;101468.84;5083818;28;20036;-60
2022/12/19 06:44:24;;;;;;;16.73;12.27;;;;;;;5.27;96.01;101473.31;5072193;28;20055;-60
2022/12/19 06:46:51;;;;;;;18.63;13.27;;;;;;;5.32;96.44;101488.16;5072251;28;20653;-60
2022/12/19 06:49:16;;;;;;;20.55;12.63;;;;;;;5.32;96.36;101481.78;5071660;28;20020;-60
2022/12/19 06:51:42;;;;;;;21.95;13.80;;;;;;;5.34;96.48;101469.50;5088520;28;20028;-60
2022/12/19 06:54:11;;;;;;;17.67;12.48;;;;;;;5.37;96.90;101474.63;5088280;28;20036;-60
2022/12/19 06:56:38;;;;;;;17.02;12.50;;;;;;;5.38;96.62;101473.59;5092171;28;20020;-60
2022/12/19 06:59:05;;;;;;;17.92;12.95;;;;;;;5.42;96.50;101479.50;5091678;28;20472;-60
2022/12/19 07:01:52;;;;;;;19.58;13.02;;;;;;;5.43;97.02;101472.13;5092083;28;20031;-60
2022/12/19 07:04:25;;;;;;;17.33;12.75;;;;;;;5.44;96.60;101482.06;5089409;28;20032;-60
2022/12/19 07:06:50;;;;;;;19.23;12.88;;;;;;;5.44;96.38;101480.16;5089286;28;20060;-60
2022/12/19 07:09:17;;;;;;;17.45;13.20;;;;;;;5.45;96.51;101472.75;5088031;28;20070;-60
2022/12/19 07:11:42;;;;;;;21.05;13.50;;;;;;;5.47;96.69;101473.41;5079586;28;20025;-60
2022/12/19 07:14:07;;;;;;;20.50;13.55;;;;;;;5.50;96.41;101467.47;5081189;28;20039;-60
2022/12/19 07:16:33;;;;;;;19.35;13.63;;;;;;;5.51;96.59;101469.19;5089869;28;20059;-61
2022/12/19 07:18:58;;;;;;;19.33;13.52;;;;;;;5.52;96.78;101466.22;5089517;28;20093;-60
2022/12/19 07:21:24;;;;;;;20.70;14.18;;;;;;;5.52;96.95;101481.91;5090818;28;20348;-60
2022/12/19 07:23:49;;;;;;;19.23;12.95;;;;;;;5.53;96.90;101467.06;5090941;28;20024;-61
2022/12/19 07:26:15;;;;;;;17.90;13.00;;;;;;;5.55;96.88;101476.00;5089457;28;20051;-60
2022/12/19 07:28:43;;;;;;;16.27;13.18;;;;;;;5.56;96.86;101472.16;5086403;28;20115;-60
2022/12/19 07:31:08;;;;;;;18.55;12.95;;;;;;;5.56;96.46;101467.50;5090063;28;20024;-60
2022/12/19 07:33:34;;;;;;;17.00;12.40;;;;;;;5.59;96.69;101463.50;5090375;28;20113;-60
2022/12/19 07:35:59;;;;;;;16.00;12.75;;;;;;;5.61;96.83;101481.50;5090344;28;20548;-60
2022/12/19 07:38:24;;;;;;;19.38;13.57;;;;;;;5.63;96.68;101478.56;5089657;28;20064;-59
2022/12/19 07:40:49;;;;;;;19.48;12.27;;;;;;;5.65;96.61;101477.28;5088387;28;20360;-60
2022/12/19 07:43:15;;;;;;;16.55;12.82;;;;;;;5.66;96.42;101484.50;5078188;28;20040;-60
2022/12/19 07:45:40;;;;;;;18.48;12.82;;;;;;;5.69;95.73;101474.13;5069878;28;20360;-60
2022/12/19 07:48:06;;;;;;;15.45;12.05;;;;;;;5.71;95.93;101485.81;5079991;28;20077;-60
2022/12/19 07:50:32;;;;;;;17.00;12.40;;;;;;;5.69;95.63;101483.22;5089297;28;20501;-60
2022/12/19 07:52:57;;;;;;;14.40;11.88;;;;;;;5.72;95.48;101484.75;5090135;28;20117;-60
2022/12/19 07:55:24;;;;;;;16.00;11.35;;;;;;;5.73;95.55;101487.28;5090181;28;20048;-60
2022/12/19 07:57:49;;;;;;;14.35;11.50;;;;;;;5.75;95.60;101487.09;5087464;28;20127;-60
2022/12/19 08:00:15;;;;;;;16.05;11.43;;;;;;;5.73;95.13;101492.78;5080856;28;20123;-60
2022/12/19 08:02:40;;;;;;;13.85;11.43;;;;;;;5.76;95.03;101488.78;5089929;28;20376;-60
2022/12/19 08:05:05;;;;;;;16.70;10.60;;;;;;;5.76;95.33;101494.28;5090698;28;20020;-60
2022/12/19 08:07:31;;;;;;;14.18;10.75;;;;;;;5.78;94.77;101497.69;5089485;28;20028;-61
2022/12/19 08:09:56;;;;;;;16.80;10.75;;;;;;;5.79;95.15;101494.72;5090410;28;20383;-60
2022/12/19 08:12:22;;;;;;;16.70;11.60;;;;;;;5.81;95.21;101508.28;5090258;28;20114;-60
2022/12/19 08:14:47;;;;;;;12.95;10.00;;;;;;;5.82;94.67;101510.00;5085290;28;20066;-60
2022/12/19 08:17:13;;;;;;;14.10;10.43;;;;;;;5.85;94.70;101507.66;5086529;28;20785;-60
2022/12/19 08:19:38;;;;;;;14.90;10.30;;;;;;;5.86;94.78;101508.53;5090136;28;20028;-60
2022/12/19 08:22:04;;;;;;;14.43;10.80;;;;;;;5.88;94.50;101498.16;5089822;28;20060;-60
2022/12/19 08:24:29;;;;;;;13.98;10.02;;;;;;;5.89;94.60;101497.06;5089992;28;20036;-60
2022/12/19 08:26:55;;;;;;;13.85;10.23;;;;;;;5.90;94.82;101494.13;5082067;28;20028;-60
2022/12/19 08:29:20;;;;;;;14.05;10.75;;;;;;;5.93;94.59;101495.66;5084966;28;20027;-60
2022/12/19 08:31:46;;;;;;;13.23;10.55;;;;;;;5.97;94.80;101494.16;5090438;28;20023;-60
2022/12/19 08:34:11;;;;;;;14.73;10.57;;;;;;;5.97;94.62;101502.44;5089889;28;20127;-60
2022/12/19 08:36:38;;;;;;;14.10;10.77;;;;;;;6.00;94.62;101501.19;5089688;28;20028;-60
2022/12/19 08:39:03;;;;;;;14.27;10.07;;;;;;;5.99;94.72;101500.34;5089763;28;20734;-60
2022/12/19 08:41:29;;;;;;;13.45;10.25;;;;;;;6.01;93.78;101505.63;5088603;28;20101;-60
2022/12/19 08:43:54;;;;;;;12.00;9.70;;;;;;;6.04;94.77;101517.09;5089778;28;20081;-60
2022/12/19 08:46:20;;;;;;;11.98;9.82;;;;;;;6.04;94.21;101514.34;5086348;28;20032;-60
2022/12/19 08:48:46;;;;;;;15.80;9.77;;;;;;;6.08;94.69;101510.09;5088228;28;20032;-61
2022/12/19 08:51:15;;;;;;;12.18;9.00;;;;;;;6.11;93.77;101509.69;5089333;28;20046;-60
2022/12/19 08:53:42;;;;;;;12.88;9.95;;;;;;;6.11;93.81;101515.22;5082995;28;20056;-61
2022/12/19 08:56:11;;;;;;;13.50;10.35;;;;;;;6.15;94.20;101504.63;5080207;28;20063;-61
2022/12/19 08:58:37;;;;;;;13.70;9.82;;;;;;;6.17;94.14;101502.53;5083073;28;20537;-61
2022/12/19 09:01:07;;;;;;;12.80;9.55;;;;;;;6.20;93.62;101502.09;5076412;28;20032;-61
2022/12/19 09:03:33;;;;;;;12.07;9.43;;;;;;;6.24;93.89;101510.78;5085062;28;20023;-60
2022/12/19 09:06:02;;;;;;;13.13;9.18;;;;;;;6.23;93.37;101507.19;5088500;28;20024;-60
2022/12/19 09:08:28;;;;;;;15.40;9.38;;;;;;;6.25;93.60;101504.22;5087280;28;20042;-60
2022/12/19 09:11:02;;;;;;;11.95;9.75;;;;;;;6.30;92.46;101519.09;5087907;28;20388;-60
2022/12/19 09:13:28;;;;;;;11.02;8.32;;;;;;;6.31;92.65;101525.44;5089064;28;20030;-60
2022/12/19 09:16:13;;;;;;;10.18;9.05;;;;;;;6.32;92.08;101516.94;5090095;28;20107;-60
2022/12/19 09:18:40;;;;;;;15.05;8.98;;;;;;;6.33;93.12;101526.09;5089741;28;20162;-60
2022/12/19 09:21:06;;;;;;;11.15;8.98;;;;;;;6.34;92.72;101525.88;5085216;28;20111;-60
2022/12/19 09:23:32;;;;;;;10.70;8.55;;;;;;;6.36;92.29;101525.66;5087461;28;20064;-60
2022/12/19 09:26:11;;;;;;;10.95;8.82;;;;;;;6.38;92.39;101516.13;5088592;28;20032;-60
2022/12/19 09:28:38;;;;;;;11.55;9.18;;;;;;;6.40;92.55;101524.19;5088478;28;20028;-60
2022/12/19 09:31:15;;;;;;;12.35;9.02;;;;;;;6.44;93.13;101530.13;5089634;28;20076;-60
2022/12/19 09:33:41;;;;;;;12.82;9.50;;;;;;;6.45;92.54;101531.84;5089874;28;20020;-60
2022/12/19 09:36:11;;;;;;;10.63;9.07;;;;;;;6.47;92.56;101524.19;5089758;28;20090;-60
2022/12/19 09:38:36;;;;;;;11.43;8.73;;;;;;;6.47;93.04;101525.03;5088152;28;20123;-60
2022/12/19 09:41:36;;;;;;;10.23;8.48;;;;;;;6.50;92.75;101524.63;5086437;28;20122;-60
2022/12/19 09:44:23;;;;;;;10.40;7.95;;;;;;;6.50;92.15;101527.38;5089996;28;20495;-60
2022/12/19 09:46:56;;;;;;;11.93;8.85;;;;;;;6.51;92.84;101525.47;5089623;28;20035;-60
2022/12/19 09:49:28;;;;;;;13.70;9.40;;;;;;;6.55;92.22;101526.75;5090014;28;20743;-60
2022/12/19 09:52:06;;;;;;;14.88;9.20;;;;;;;6.57;92.49;101532.94;5090075;28;20028;-60
2022/12/19 09:54:45;;;;;;;12.40;9.02;;;;;;;6.61;92.06;101525.94;5087841;28;20043;-60
2022/12/19 09:57:19;;;;;;;9.90;8.60;;;;;;;6.62;92.33;101527.63;5086492;28;20170;-61
2022/12/19 09:59:50;;;;;;;15.00;9.02;;;;;;;6.63;92.28;101524.63;5088272;28;20024;-60
2022/12/19 10:02:36;;;;;;;11.07;8.82;;;;;;;6.68;92.00;101535.06;5089652;28;20020;-60
2022/12/19 10:05:17;;;;;;;10.90;8.55;;;;;;;6.69;91.48;101545.03;5089987;28;20073;-60
2022/12/19 10:07:44;;;;;;;10.80;8.32;;;;;;;6.73;91.75;101540.78;5089550;28;20071;-59
2022/12/19 10:10:20;;;;;;;9.35;7.10;;;;;;;6.73;91.22;101540.78;5093704;28;20024;-60
2022/12/19 10:12:58;;;;;;;12.75;7.95;;;;;;;6.76;91.12;101532.09;5092442;28;20064;-60
2022/12/19 10:15:43;;;;;;;9.20;7.75;;;;;;;6.79;90.98;101528.88;5086907;28;20540;-60
2022/12/19 10:18:30;;;;;;;11.85;7.53;;;;;;;6.83;91.02;101534.84;5092843;28;20032;-60
2022/12/19 10:21:10;;;;;;;9.13;7.63;;;;;;;6.85;90.76;101533.56;5093049;28;20024;-61
2022/12/19 10:23:38;;;;;;;12.25;7.68;;;;;;;6.87;90.66;101534.19;5092951;28;20028;-62
2022/12/19 10:26:32;;;;;;;11.15;8.57;;;;;;;6.89;90.52;101532.09;5092845;28;20042;-62
2022/12/19 10:29:21;;;;;;;9.75;7.25;;;;;;;6.95;90.34;101527.63;5091459;28;20387;-61
2022/12/19 10:31:59;;;;;;;11.15;7.68;;;;;;;6.96;90.07;101551.41;5078020;28;20028;-61
2022/12/19 10:34:34;;;;;;;9.60;7.20;;;;;;;6.96;89.49;101545.91;5073306;28;20045;-61
2022/12/19 10:37:08;;;;;;;9.70;7.65;;;;;;;6.95;90.24;101537.81;5072868;28;20035;-62
2022/12/19 10:39:47;;;;;;;11.05;7.65;;;;;;;6.99;90.13;101536.31;5084116;28;20394;-61
2022/12/19 10:42:23;;;;;;;11.00;7.90;;;;;;;6.98;90.56;101538.25;5091959;28;20036;-61
2022/12/19 10:44:53;;;;;;;10.90;8.13;;;;;;;6.98;90.24;101545.69;5072819;28;20036;-61
2022/12/19 10:47:18;;;;;;;11.00;7.35;;;;;;;6.98;90.77;101551.19;5073455;28;20430;-61
2022/12/19 10:49:43;;;;;;;10.82;7.93;;;;;;;7.01;90.82;101539.75;5084860;28;20032;-61
2022/12/19 10:52:10;;;;;;;12.05;9.40;;;;;;;7.03;91.38;101543.97;5079233;28;20039;-61
2022/12/19 10:54:36;;;;;;;10.32;7.90;;;;;;;7.03;90.62;101545.88;5074381;28;20028;-61
2022/12/19 10:57:25;;;;;;;9.70;7.40;;;;;;;7.05;91.27;101549.28;5071706;28;20686;-61
2022/12/19 11:00:02;;;;;;;9.20;7.05;;;;;;;7.04;91.76;101537.41;5080132;28;20345;-61
2022/12/19 11:02:36;;;;;;;11.77;7.78;;;;;;;7.05;91.68;101535.50;5092994;28;20020;-61
2022/12/19 11:05:04;;;;;;;10.70;7.57;;;;;;;7.06;92.39;101529.75;5092010;28;20034;-61
2022/12/19 11:07:30;;;;;;;11.82;7.55;;;;;;;7.06;91.95;101521.47;5091881;28;20104;-61
2022/12/19 11:09:55;;;;;;;9.10;7.60;;;;;;;7.04;92.65;101529.13;5073531;28;20443;-61
2022/12/19 11:12:25;;;;;;;10.90;8.02;;;;;;;7.04;93.04;101531.03;5071832;28;20020;-61
2022/12/19 11:15:02;;;;;;;10.88;7.47;;;;;;;7.03;92.52;101530.16;5080757;28;20028;-61
2022/12/19 11:17:30;;;;;;;9.63;7.22;;;;;;;7.04;92.33;101526.38;5084811;28;20536;-61
2022/12/19 11:19:56;;;;;;;8.07;6.72;;;;;;;7.06;92.86;101512.34;5079359;28;20032;-59
2022/12/19 11:22:28;;;;;;;9.55;7.25;;;;;;;7.07;92.75;101511.25;5082282;28;20024;-63
2022/12/19 11:24:54;;;;;;;9.30;7.60;;;;;;;7.06;93.20;101506.81;5086081;28;20043;-62
2022/12/19 11:27:36;;;;;;;11.48;7.30;;;;;;;7.07;92.75;101503.84;5087222;28;20040;-60
2022/12/19 11:30:17;;;;;;;8.85;6.75;;;;;;;7.09;92.53;101506.38;5077082;28;20035;-61
2022/12/19 11:32:45;;;;;;;12.32;7.40;;;;;;;7.09;91.47;101500.88;5089708;28;20174;-61